createdAt,value
2022-10-15T00:01:26.435Z,100.00
2022-10-15T00:03:54.016Z,100.00
2022-10-15T00:06:21.980Z,100.00
2022-10-15T00:08:49.419Z,100.00
2022-10-15T00:11:19.166Z,100.00
2022-10-15T00:13:46.599Z,100.00
2022-10-15T00:16:16.268Z,100.00
2022-10-15T00:18:44.993Z,100.00
2022-10-15T00:21:13.215Z,100.00
2022-10-15T00:23:40.740Z,100.00
2022-10-15T00:26:10.910Z,100.00
2022-10-15T00:28:38.669Z,100.00
2022-10-15T00:31:07.487Z,100.00
2022-10-15T00:33:34.994Z,100.00
2022-10-15T00:36:03.306Z,100.00
2022-10-15T00:38:30.836Z,100.00
2022-10-15T00:40:59.211Z,100.00
2022-10-15T00:43:38.716Z,100.00
2022-10-15T00:46:06.707Z,100.00
2022-10-15T00:48:35.799Z,100.00
2022-10-15T00:51:03.733Z,100.00
2022-10-15T00:53:31.216Z,100.00
2022-10-15T00:55:58.692Z,100.00
2022-10-15T00:58:28.505Z,100.00
2022-10-15T01:00:56.077Z,100.00
2022-10-15T01:03:23.663Z,100.00
2022-10-15T01:05:51.386Z,100.00
2022-10-15T01:08:18.884Z,100.00
2022-10-15T01:11:05.060Z,100.00
2022-10-15T01:13:39.123Z,100.00
2022-10-15T01:16:16.341Z,100.00
2022-10-15T01:18:46.340Z,100.00
2022-10-15T01:21:14.313Z,100.00
2022-10-15T01:24:02.249Z,100.00
2022-10-15T01:26:42.812Z,100.00
2022-10-15T01:29:29.720Z,100.00
2022-10-15T01:32:00.171Z,100.00
2022-10-15T01:34:36.680Z,100.00
2022-10-15T01:37:07.637Z,100.00
2022-10-15T01:39:38.122Z,100.00
2022-10-15T01:42:25.834Z,100.00
2022-10-15T01:45:13.667Z,100.00
2022-10-15T01:48:04.154Z,100.00
2022-10-15T01:50:32.596Z,100.00
2022-10-15T01:53:00.177Z,100.00
2022-10-15T01:55:27.892Z,100.00
2022-10-15T01:57:56.398Z,100.00
2022-10-15T02:00:25.238Z,100.00
2022-10-15T02:02:52.835Z,100.00
2022-10-15T02:05:21.815Z,100.00
2022-10-15T02:07:55.494Z,100.00
2022-10-15T02:10:32.822Z,100.00
2022-10-15T02:13:00.208Z,100.00
2022-10-15T02:15:31.439Z,100.00
2022-10-15T02:18:00.915Z,100.00
2022-10-15T02:20:30.273Z,100.00
2022-10-15T02:23:06.196Z,100.00
2022-10-15T02:25:33.907Z,100.00
2022-10-15T02:28:01.458Z,100.00
2022-10-15T02:30:29.078Z,100.00
2022-10-15T02:32:56.802Z,100.00
2022-10-15T02:35:24.298Z,100.00
2022-10-15T02:37:52.200Z,100.00
2022-10-15T02:40:27.352Z,100.00
2022-10-15T02:42:55.726Z,100.00
2022-10-15T02:45:23.404Z,100.00
2022-10-15T02:47:51.367Z,100.00
2022-10-15T02:50:19.430Z,100.00
2022-10-15T02:52:48.189Z,100.00
2022-10-15T02:55:16.031Z,100.00
2022-10-15T02:57:43.851Z,100.00
2022-10-15T03:00:11.537Z,100.00
2022-10-15T03:02:41.411Z,100.00
2022-10-15T03:05:09.298Z,100.00
2022-10-15T03:07:37.951Z,100.00
2022-10-15T03:10:05.659Z,100.00
2022-10-15T03:12:33.476Z,100.00
2022-10-15T03:15:00.859Z,100.00
2022-10-15T03:17:29.552Z,100.00
2022-10-15T03:19:58.004Z,100.00
2022-10-15T03:22:25.410Z,100.00
2022-10-15T03:24:54.248Z,100.00
2022-10-15T03:27:27.299Z,100.00
2022-10-15T03:29:55.111Z,100.00
2022-10-15T03:32:25.064Z,100.00
2022-10-15T03:34:52.976Z,100.00
2022-10-15T03:37:21.700Z,100.00
2022-10-15T03:39:49.560Z,100.00
2022-10-15T03:42:19.109Z,100.00
2022-10-15T03:44:47.146Z,100.00
2022-10-15T03:47:20.629Z,100.00
2022-10-15T03:49:49.739Z,100.00
2022-10-15T03:52:18.111Z,100.00
2022-10-15T03:54:47.514Z,100.00
2022-10-15T03:57:18.191Z,100.00
2022-10-15T03:59:50.822Z,100.00
2022-10-15T04:02:19.451Z,100.00
2022-10-15T04:04:47.026Z,100.00
2022-10-15T04:07:16.763Z,100.00
2022-10-15T04:09:44.046Z,100.00
2022-10-15T04:12:28.161Z,100.00
2022-10-15T04:15:00.112Z,100.00
2022-10-15T04:17:29.596Z,100.00
2022-10-15T04:19:58.340Z,100.00
2022-10-15T04:22:26.981Z,100.00
2022-10-15T04:24:59.136Z,100.00
2022-10-15T04:27:28.624Z,100.00
2022-10-15T04:30:05.955Z,100.00
2022-10-15T04:32:33.823Z,100.00
2022-10-15T04:35:01.573Z,100.00
2022-10-15T04:37:48.090Z,100.00
2022-10-15T04:40:16.426Z,100.00
2022-10-15T04:42:43.800Z,100.00
2022-10-15T04:45:12.147Z,100.00
2022-10-15T04:47:41.089Z,100.00
2022-10-15T04:50:12.085Z,100.00
2022-10-15T04:53:17.729Z,100.00
2022-10-15T04:55:49.026Z,100.00
2022-10-15T04:58:16.781Z,100.00
2022-10-15T05:00:44.504Z,100.00
2022-10-15T05:03:37.476Z,100.00
2022-10-15T05:06:14.140Z,100.00
2022-10-15T05:08:44.768Z,100.00
2022-10-15T05:11:25.285Z,100.00
2022-10-15T05:13:56.620Z,100.00
2022-10-15T05:16:26.261Z,100.00
2022-10-15T05:18:59.180Z,100.00
2022-10-15T05:21:27.067Z,100.00
2022-10-15T05:23:58.342Z,100.00
2022-10-15T05:27:04.347Z,100.00
2022-10-15T05:29:35.824Z,100.00
2022-10-15T05:32:03.300Z,100.00
2022-10-15T05:34:31.064Z,100.00
2022-10-15T05:37:13.226Z,100.00
2022-10-15T05:39:42.618Z,100.00
2022-10-15T05:42:11.335Z,100.00
2022-10-15T05:44:42.471Z,100.00
2022-10-15T05:47:12.051Z,100.00
2022-10-15T05:49:42.130Z,98.21
2022-10-15T05:52:17.448Z,98.33
2022-10-15T05:55:11.378Z,97.87
2022-10-15T05:57:39.190Z,95.67
2022-10-15T06:00:06.782Z,92.95
2022-10-15T06:02:42.059Z,88.39
2022-10-15T06:05:09.631Z,88.50
2022-10-15T06:07:37.083Z,90.60
2022-10-15T06:10:05.716Z,90.55
2022-10-15T06:12:35.573Z,87.94
2022-10-15T06:15:03.062Z,84.28
2022-10-15T06:17:30.657Z,81.25
2022-10-15T06:19:59.541Z,79.17
2022-10-15T06:22:30.263Z,81.36
2022-10-15T06:24:57.847Z,83.54
2022-10-15T06:27:26.257Z,84.52
2022-10-15T06:29:54.089Z,77.32
2022-10-15T06:32:21.933Z,78.59
2022-10-15T06:34:50.200Z,77.15
2022-10-15T06:37:17.723Z,76.20
2022-10-15T06:39:46.854Z,76.39
2022-10-15T06:42:14.310Z,76.10
2022-10-15T06:44:41.743Z,72.47
2022-10-15T06:47:09.347Z,68.88
2022-10-15T06:49:36.715Z,71.18
2022-10-15T06:52:04.301Z,71.49
2022-10-15T06:54:31.578Z,76.63
2022-10-15T06:56:59.304Z,75.10
2022-10-15T06:59:26.816Z,76.01
2022-10-15T07:01:55.637Z,72.97
2022-10-15T07:04:23.567Z,70.97
2022-10-15T07:06:51.657Z,73.19
2022-10-15T07:09:21.436Z,68.95
2022-10-15T07:11:48.842Z,68.97
2022-10-15T07:14:16.304Z,64.30
2022-10-15T07:16:45.626Z,61.25
2022-10-15T07:19:12.973Z,62.71
2022-10-15T07:21:40.599Z,63.99
2022-10-15T07:24:08.120Z,63.63
2022-10-15T07:26:36.771Z,56.80
2022-10-15T07:29:04.569Z,47.73
2022-10-15T07:31:32.547Z,43.89
2022-10-15T07:34:00.023Z,39.76
2022-10-15T07:36:27.900Z,35.56
2022-10-15T07:38:55.455Z,34.75
2022-10-15T07:41:23.662Z,34.88
2022-10-15T07:43:54.148Z,33.39
2022-10-15T07:46:22.200Z,32.90
2022-10-15T07:48:55.707Z,32.47
2022-10-15T07:51:23.481Z,33.58
2022-10-15T07:53:50.810Z,31.28
2022-10-15T07:56:18.196Z,31.95
2022-10-15T07:58:52.020Z,29.46
2022-10-15T08:01:20.131Z,30.86
2022-10-15T08:03:48.019Z,29.87
2022-10-15T08:06:16.388Z,28.92
2022-10-15T08:08:44.061Z,29.23
2022-10-15T08:11:12.552Z,29.17
2022-10-15T08:13:42.226Z,27.99
2022-10-15T08:16:11.694Z,28.46
2022-10-15T08:18:39.309Z,29.74
2022-10-15T08:21:07.003Z,28.91
2022-10-15T08:23:35.580Z,27.79
2022-10-15T08:26:03.239Z,28.90
2022-10-15T08:28:31.176Z,30.67
2022-10-15T08:31:02.718Z,30.64
2022-10-15T08:33:33.494Z,30.54
2022-10-15T08:36:01.288Z,27.57
2022-10-15T08:38:30.219Z,28.63
2022-10-15T08:40:57.992Z,29.96
2022-10-15T08:43:26.664Z,31.01
2022-10-15T08:45:54.925Z,31.38
2022-10-15T08:48:25.380Z,30.43
2022-10-15T08:50:56.846Z,28.92
2022-10-15T08:53:24.344Z,29.60
2022-10-15T08:55:55.839Z,29.59
2022-10-15T08:58:36.963Z,27.68
2022-10-15T09:01:18.033Z,28.69
2022-10-15T09:03:48.544Z,29.65
2022-10-15T09:06:18.532Z,29.86
2022-10-15T09:08:46.312Z,29.97
2022-10-15T09:11:18.912Z,30.42
2022-10-15T09:13:46.434Z,31.80
2022-10-15T09:16:28.004Z,32.40
2022-10-15T09:18:55.527Z,33.28
2022-10-15T09:21:24.924Z,33.48
2022-10-15T09:23:53.562Z,33.94
2022-10-15T09:26:26.944Z,35.60
2022-10-15T09:28:57.753Z,34.28
2022-10-15T09:31:27.048Z,34.46
2022-10-15T09:33:56.296Z,34.22
2022-10-15T09:36:34.199Z,33.70
2022-10-15T09:39:11.651Z,34.60
2022-10-15T09:41:41.947Z,33.55
2022-10-15T09:44:13.694Z,32.99
2022-10-15T09:46:45.750Z,34.22
2022-10-15T09:49:19.081Z,33.84
2022-10-15T09:51:52.144Z,32.94
2022-10-15T09:54:26.016Z,33.25
2022-10-15T09:56:54.661Z,33.51
2022-10-15T09:59:22.316Z,35.01
2022-10-15T10:02:10.125Z,33.05
2022-10-15T10:04:38.648Z,34.39
2022-10-15T10:07:09.673Z,33.04
2022-10-15T10:09:38.538Z,34.82
2022-10-15T10:12:06.845Z,33.50
2022-10-15T10:14:53.335Z,34.29
2022-10-15T10:17:21.616Z,34.37
2022-10-15T10:20:07.707Z,35.07
2022-10-15T10:22:47.765Z,34.05
2022-10-15T10:25:37.546Z,35.00
2022-10-15T10:28:14.188Z,34.71
2022-10-15T10:30:48.201Z,34.35
2022-10-15T10:33:15.798Z,34.22
2022-10-15T10:35:47.057Z,33.88
2022-10-15T10:38:21.376Z,32.66
2022-10-15T10:40:52.707Z,34.43
2022-10-15T10:43:27.464Z,34.54
2022-10-15T10:45:59.316Z,33.91
2022-10-15T10:48:47.026Z,34.86
2022-10-15T10:51:19.010Z,34.74
2022-10-15T10:53:59.332Z,35.02
2022-10-15T10:56:31.243Z,35.42
2022-10-15T10:58:59.905Z,34.42
2022-10-15T11:01:27.339Z,35.53
2022-10-15T11:03:54.947Z,37.04
2022-10-15T11:06:30.213Z,35.90
2022-10-15T11:09:04.913Z,37.02
2022-10-15T11:11:47.978Z,36.33
2022-10-15T11:14:25.412Z,36.97
2022-10-15T11:17:11.553Z,36.93
2022-10-15T11:22:37.361Z,36.74
2022-10-15T11:25:22.087Z,37.40
2022-10-15T11:27:57.481Z,37.30
2022-10-15T11:30:34.199Z,37.65
2022-10-15T11:33:07.596Z,36.74
2022-10-15T11:35:54.457Z,36.79
2022-10-15T11:38:35.755Z,36.62
2022-10-15T11:41:21.689Z,37.98
2022-10-15T11:43:58.220Z,37.08
2022-10-15T11:46:48.788Z,37.19
2022-10-15T11:49:22.369Z,37.45
2022-10-15T11:52:07.232Z,37.29
2022-10-15T11:54:40.600Z,37.08
2022-10-15T11:57:09.270Z,39.79
2022-10-15T11:59:36.801Z,36.84
2022-10-15T12:02:05.526Z,36.55
2022-10-15T12:04:36.046Z,36.60
2022-10-15T12:07:04.976Z,36.18
2022-10-15T12:09:34.422Z,37.16
2022-10-15T12:12:11.036Z,36.89
2022-10-15T12:15:10.975Z,37.02
2022-10-15T12:17:44.362Z,37.77
2022-10-15T12:20:12.753Z,37.31
2022-10-15T12:22:41.619Z,36.96
2022-10-15T12:25:29.314Z,37.08
2022-10-15T12:28:00.424Z,38.17
2022-10-15T12:30:28.667Z,38.02
2022-10-15T12:32:56.026Z,38.07
2022-10-15T12:35:36.463Z,39.06
2022-10-15T12:38:11.249Z,40.67
2022-10-15T12:40:38.978Z,38.60
2022-10-15T12:43:14.244Z,38.61
2022-10-15T12:46:11.113Z,38.87
2022-10-15T12:48:42.603Z,39.82
2022-10-15T12:51:16.279Z,40.23
2022-10-15T12:53:44.286Z,39.52
2022-10-15T12:56:11.617Z,40.49
2022-10-15T12:58:41.701Z,39.67
2022-10-15T13:01:15.306Z,39.85
2022-10-15T13:03:44.214Z,39.89
2022-10-15T13:06:14.449Z,39.51
2022-10-15T13:08:45.742Z,39.28
2022-10-15T13:11:31.135Z,39.54
2022-10-15T13:14:42.616Z,39.22
2022-10-15T13:17:20.270Z,40.46
2022-10-15T13:19:50.027Z,41.53
2022-10-15T13:22:24.757Z,40.10
2022-10-15T13:24:52.818Z,40.46
2022-10-15T13:27:32.119Z,40.01
2022-10-15T13:30:00.735Z,40.66
2022-10-15T13:32:29.156Z,40.68
2022-10-15T13:34:57.649Z,41.10
2022-10-15T13:37:27.165Z,40.92
2022-10-15T13:39:55.124Z,40.73
2022-10-15T13:42:23.393Z,41.28
2022-10-15T13:45:01.720Z,40.64
2022-10-15T13:47:34.451Z,41.28
2022-10-15T13:50:21.160Z,41.21
2022-10-15T13:52:50.609Z,40.35
2022-10-15T13:55:24.757Z,40.99
2022-10-15T13:57:53.005Z,40.83
2022-10-15T14:00:23.250Z,42.29
2022-10-15T14:03:09.651Z,41.69
2022-10-15T14:05:37.355Z,41.51
2022-10-15T14:08:04.791Z,41.36
2022-10-15T14:10:32.652Z,43.58
2022-10-15T14:13:00.219Z,42.17
2022-10-15T14:15:41.364Z,41.71
2022-10-15T14:18:09.142Z,40.99
2022-10-15T14:20:37.099Z,41.23
2022-10-15T14:23:04.533Z,41.64
2022-10-15T14:25:31.989Z,41.60
2022-10-15T14:27:59.374Z,42.18
2022-10-15T14:30:28.077Z,42.38
2022-10-15T14:32:55.831Z,42.07
2022-10-15T14:35:30.223Z,42.49
2022-10-15T14:38:03.834Z,42.80
2022-10-15T14:40:31.416Z,43.30
2022-10-15T14:43:03.807Z,43.01
2022-10-15T14:45:32.244Z,43.33
2022-10-15T14:48:00.481Z,43.61
2022-10-15T14:50:30.243Z,43.14
2022-10-15T14:52:57.612Z,43.27
2022-10-15T14:55:25.267Z,44.21
2022-10-15T14:57:53.047Z,44.05
2022-10-15T15:00:27.054Z,43.97
2022-10-15T15:02:56.142Z,44.10
2022-10-15T15:05:26.831Z,44.50
2022-10-15T15:07:54.485Z,44.72
2022-10-15T15:10:21.896Z,44.48
2022-10-15T15:12:51.848Z,44.59
2022-10-15T15:15:21.732Z,45.12
2022-10-15T15:17:49.416Z,45.17
2022-10-15T15:20:20.270Z,46.59
2022-10-15T15:22:50.440Z,47.28
2022-10-15T15:25:24.676Z,48.70
2022-10-15T15:27:52.400Z,48.00
2022-10-15T15:30:20.579Z,47.99
2022-10-15T15:32:49.386Z,48.01
2022-10-15T15:35:19.884Z,48.71
2022-10-15T15:37:52.206Z,49.00
2022-10-15T15:40:20.439Z,49.09
2022-10-15T15:42:49.371Z,50.96
2022-10-15T15:45:18.611Z,51.55
2022-10-15T15:47:46.226Z,51.50
2022-10-15T15:50:14.226Z,52.00
2022-10-15T15:52:43.636Z,51.76
2022-10-15T15:55:11.385Z,51.50
2022-10-15T15:57:38.706Z,51.46
2022-10-15T16:00:06.769Z,50.69
2022-10-15T16:02:34.555Z,52.19
2022-10-15T16:05:02.127Z,53.68
2022-10-15T16:07:29.958Z,54.54
2022-10-15T16:09:57.517Z,54.43
2022-10-15T16:12:26.436Z,55.64
2022-10-15T16:14:54.728Z,56.61
2022-10-15T16:17:28.513Z,55.97
2022-10-15T16:20:16.918Z,56.70
2022-10-15T16:22:45.339Z,55.04
2022-10-15T16:25:12.716Z,55.42
2022-10-15T16:28:02.046Z,56.16
2022-10-15T16:30:29.624Z,57.22
2022-10-15T16:32:58.062Z,56.41
2022-10-15T16:35:25.701Z,58.57
2022-10-15T16:37:56.221Z,59.10
2022-10-15T16:40:24.756Z,59.33
2022-10-15T16:42:52.096Z,60.06
2022-10-15T16:45:19.471Z,60.20
2022-10-15T16:47:46.928Z,61.21
2022-10-15T16:50:14.704Z,59.80
2022-10-15T16:52:42.112Z,58.08
2022-10-15T16:55:14.080Z,58.46
2022-10-15T16:57:42.979Z,58.95
2022-10-15T17:00:10.667Z,61.77
2022-10-15T17:02:38.277Z,59.99
2022-10-15T17:05:06.172Z,61.48
2022-10-15T17:07:36.308Z,60.06
2022-10-15T17:10:07.450Z,60.92
2022-10-15T17:12:36.033Z,60.74
2022-10-15T17:15:03.636Z,61.79
2022-10-15T17:17:31.107Z,62.71
2022-10-15T17:19:58.485Z,63.67
2022-10-15T17:22:26.529Z,63.70
2022-10-15T17:24:54.654Z,64.26
2022-10-15T17:27:22.164Z,65.10
2022-10-15T17:29:50.127Z,64.89
2022-10-15T17:32:17.715Z,62.05
2022-10-15T17:34:45.287Z,60.64
2022-10-15T17:37:14.410Z,62.22
2022-10-15T17:39:41.873Z,61.65
2022-10-15T17:42:09.221Z,61.06
2022-10-15T17:44:36.627Z,61.09
2022-10-15T17:47:04.222Z,62.45
2022-10-15T17:49:31.938Z,61.61
2022-10-15T17:52:00.708Z,61.33
2022-10-15T17:54:31.260Z,62.35
2022-10-15T17:56:59.292Z,61.33
2022-10-15T17:59:26.751Z,62.56
2022-10-15T18:01:59.283Z,65.30
2022-10-15T18:04:28.186Z,64.54
2022-10-15T18:06:55.921Z,64.76
2022-10-15T18:09:27.022Z,65.10
2022-10-15T18:12:01.859Z,64.00
2022-10-15T18:14:32.307Z,64.42
2022-10-15T18:16:59.978Z,64.15
2022-10-15T18:19:29.311Z,65.54
2022-10-15T18:21:57.141Z,68.22
2022-10-15T18:24:24.611Z,66.16
2022-10-15T18:26:52.758Z,67.08
2022-10-15T18:29:20.160Z,68.84
2022-10-15T18:31:53.391Z,68.10
2022-10-15T18:34:24.120Z,71.07
2022-10-15T18:36:51.682Z,73.27
2022-10-15T18:39:20.315Z,75.35
2022-10-15T18:41:47.881Z,75.97
2022-10-15T18:44:16.895Z,76.66
2022-10-15T18:46:45.150Z,76.34
2022-10-15T18:49:13.415Z,78.35
2022-10-15T18:51:40.900Z,78.26
2022-10-15T18:54:08.901Z,80.58
2022-10-15T18:56:36.615Z,81.46
2022-10-15T18:59:04.488Z,81.94
2022-10-15T19:01:35.565Z,82.45
2022-10-15T19:04:10.405Z,80.23
2022-10-15T19:06:40.503Z,80.96
2022-10-15T19:09:09.082Z,81.93
2022-10-15T19:11:37.048Z,83.94
2022-10-15T19:14:06.719Z,85.76
2022-10-15T19:16:34.501Z,87.14
2022-10-15T19:19:16.748Z,88.61
2022-10-15T19:21:44.489Z,89.21
2022-10-15T19:24:13.555Z,89.43
2022-10-15T19:26:41.010Z,88.52
2022-10-15T19:29:09.098Z,88.53
2022-10-15T19:31:39.860Z,88.39
2022-10-15T19:34:07.703Z,89.18
2022-10-15T19:36:37.094Z,89.39
2022-10-15T19:39:07.844Z,90.78
2022-10-15T19:41:39.338Z,91.12
2022-10-15T19:44:08.401Z,90.81
2022-10-15T19:46:36.215Z,89.78
2022-10-15T19:49:04.154Z,89.78
2022-10-15T19:51:33.066Z,90.21
2022-10-15T19:54:00.834Z,91.08
2022-10-15T19:56:31.983Z,91.46
2022-10-15T19:59:00.333Z,89.44
2022-10-15T20:01:28.866Z,92.08
2022-10-15T20:04:03.257Z,93.30
2022-10-15T20:06:35.342Z,93.56
2022-10-15T20:09:02.762Z,93.55
2022-10-15T20:11:30.264Z,94.71
2022-10-15T20:13:59.502Z,95.94
2022-10-15T20:16:27.615Z,97.13
2022-10-15T20:18:59.038Z,98.42
2022-10-15T20:21:26.414Z,99.03
2022-10-15T20:23:54.048Z,98.77
2022-10-15T20:26:24.039Z,99.01
2022-10-15T20:28:54.236Z,99.94
2022-10-15T20:31:21.957Z,97.57
2022-10-15T20:33:50.387Z,97.12
2022-10-15T20:36:21.364Z,96.30
2022-10-15T20:38:50.601Z,96.47
2022-10-15T20:41:18.390Z,97.40
2022-10-15T20:43:46.062Z,98.71
2022-10-15T20:46:14.069Z,97.78
2022-10-15T20:48:44.310Z,98.39
2022-10-15T20:51:13.729Z,99.18
2022-10-15T20:53:42.779Z,99.93
2022-10-15T20:56:10.275Z,99.80
2022-10-15T20:58:38.020Z,99.23
2022-10-15T21:01:08.106Z,98.63
2022-10-15T21:03:35.770Z,98.09
2022-10-15T21:06:04.069Z,98.61
2022-10-15T21:08:31.618Z,99.30
2022-10-15T21:11:03.347Z,98.76
2022-10-15T21:13:32.457Z,97.81
2022-10-15T21:16:00.610Z,96.20
2022-10-15T21:18:28.059Z,95.36
2022-10-15T21:20:55.720Z,96.06
2022-10-15T21:23:23.253Z,94.60
2022-10-15T21:25:50.887Z,95.00
2022-10-15T21:28:18.276Z,93.48
2022-10-15T21:30:46.318Z,92.83
2022-10-15T21:33:13.653Z,92.73
2022-10-15T21:35:41.382Z,90.74
2022-10-15T21:38:08.944Z,91.53
2022-10-15T21:40:37.274Z,92.54
2022-10-15T21:43:04.731Z,91.83
2022-10-15T21:45:32.107Z,91.23
2022-10-15T21:47:59.478Z,90.13
2022-10-15T21:50:26.987Z,91.15
2022-10-15T21:52:54.391Z,90.85
2022-10-15T21:55:21.839Z,91.91
2022-10-15T21:57:49.170Z,95.12
2022-10-15T22:00:16.788Z,95.80
2022-10-15T22:02:48.735Z,98.66
2022-10-15T22:05:16.104Z,98.33
2022-10-15T22:07:43.499Z,95.48
2022-10-15T22:10:11.068Z,97.68
2022-10-15T22:12:38.457Z,97.50
2022-10-15T22:15:06.158Z,94.99
2022-10-15T22:17:33.691Z,93.87
2022-10-15T22:20:01.615Z,96.91
2022-10-15T22:22:29.350Z,97.14
2022-10-15T22:24:59.675Z,94.91
2022-10-15T22:27:28.332Z,98.89
2022-10-15T22:29:56.279Z,98.21
2022-10-15T22:32:23.972Z,100.00
2022-10-15T22:34:51.695Z,100.00
2022-10-15T22:37:19.020Z,99.82
2022-10-15T22:39:46.397Z,98.89
2022-10-15T22:42:13.844Z,99.87
2022-10-15T22:44:41.393Z,95.89
2022-10-15T22:47:09.886Z,96.08
2022-10-15T22:49:37.615Z,95.17
2022-10-15T22:52:05.902Z,95.35
2022-10-15T22:54:33.410Z,98.33
2022-10-15T22:57:01.894Z,99.28
2022-10-15T22:59:32.773Z,99.96
2022-10-15T23:02:00.257Z,100.00
2022-10-15T23:04:28.001Z,100.00
2022-10-15T23:06:55.978Z,99.38
2022-10-15T23:09:25.838Z,99.94
2022-10-15T23:11:53.273Z,100.00
2022-10-15T23:14:20.792Z,100.00
2022-10-15T23:16:49.266Z,100.00
2022-10-15T23:19:17.685Z,100.00
2022-10-15T23:21:46.375Z,100.00
2022-10-15T23:24:14.051Z,100.00
2022-10-15T23:26:41.508Z,100.00
2022-10-15T23:29:10.623Z,100.00
2022-10-15T23:31:38.015Z,100.00
2022-10-15T23:34:05.593Z,100.00
2022-10-15T23:36:33.153Z,100.00
2022-10-15T23:39:02.272Z,100.00
2022-10-15T23:41:31.383Z,100.00
2022-10-15T23:43:58.780Z,100.00
2022-10-15T23:46:26.202Z,100.00
2022-10-15T23:48:53.739Z,98.53
2022-10-15T23:51:22.169Z,97.75
2022-10-15T23:53:50.941Z,99.22
2022-10-15T23:56:18.266Z,100.00
2022-10-15T23:58:49.316Z,97.71
